PWSweather.com
Personal Weather Stations
Station Observations
KTNBARTL6
Rockyford Subdivision, Bartlett, TN 38002

Rockyford SubdivisionBartlett, TN 38002

Lat: 35.2684679, Lon: -89.8370406

Elevation: 260

Station Type: Davis Vantage Pro2 Wireless

http://www.memphisweather.net/wxlive.shtml

Latest ConditionsUpdated 10:35:03 PM CDT Sunday, May 19, 2019
Currently Today's Max Today's Min Today's Average
Temperature 69.8°F21.0°C 84.0°F28.9°C 65.0°F18.3°C 73.6°F23.1°C
Dew Point 68.0°F20.0°C 73.5°F23.1°C 63.5°F17.5°C 68.5°F20.3°C
Winds Calm Calm 11.0 mph -17.7 kmh - - 2.3 mph 3.7 kmh
Wind Gusts -- 19.0 mph30.6 kmh - -
Humidity 94% 96% 67% 85%
Pressure 29.94 in1013.9 mb 29.94 in1013.9 mb 29.78 in1008.5 mb -
Hour Temp Dew Point Humidity Winds Wind Gusts Pressure Precip Precip Rate Daily Precip Total
10:35 PM 69.8°F21.0°C 68.0°F20.0°C 94% Calm Calm -- 29.94 in1013.9 mb 0.00 in0.0 mm 0.00 in0.0 mm 0.18 in4.6 mm
10:25 PM 69.9°F21.1°C 67.8°F19.9°C 93% Calm Calm -- 29.94 in1013.9 mb 0.00 in0.0 mm 0.00 in0.0 mm 0.18 in4.6 mm
10:15 PM 70.6°F21.4°C 68.2°F20.1°C 92% Calm Calm -- 29.94 in1013.9 mb 0.00 in0.0 mm 0.00 in0.0 mm 0.18 in4.6 mm
10:05 PM 71.1°F21.7°C 69.0°F20.6°C 93% Calm Calm -- 29.93 in1013.5 mb 0.00 in0.0 mm 0.00 in0.0 mm 0.18 in4.6 mm
09:55 PM 71.4°F21.9°C 69.0°F20.6°C 92% Calm Calm -- 29.92 in1013.2 mb 0.00 in0.0 mm 0.00 in0.0 mm 0.18 in4.6 mm
09:45 PM 72.3°F22.4°C 69.5°F20.8°C 91% Calm Calm -- 29.92 in1013.2 mb 0.00 in0.0 mm 0.00 in0.0 mm 0.18 in4.6 mm
09:35 PM 72.6°F22.6°C 69.8°F21.0°C 91% Calm Calm -- 29.92 in1013.2 mb 0.00 in0.0 mm 0.00 in0.0 mm 0.18 in4.6 mm
09:25 PM 72.6°F22.6°C 69.5°F20.8°C 90% Calm Calm -- 29.91 in1012.9 mb 0.00 in0.0 mm 0.00 in0.0 mm 0.18 in4.6 mm
09:15 PM 72.8°F22.7°C 69.7°F20.9°C 90% Calm Calm -- 29.91 in1012.9 mb 0.00 in0.0 mm 0.00 in0.0 mm 0.18 in4.6 mm
09:05 PM 73.3°F22.9°C 69.9°F21.1°C 89% Calm Calm -- 29.90 in1012.5 mb 0.00 in0.0 mm 0.00 in0.0 mm 0.18 in4.6 mm
08:55 PM 73.5°F23.1°C 70.1°F21.2°C 89% Calm Calm -- 29.90 in1012.5 mb 0.00 in0.0 mm 0.00 in0.0 mm 0.18 in4.6 mm
08:45 PM 74.3°F23.5°C 70.2°F21.2°C 87% Calm Calm -- 29.89 in1012.2 mb 0.00 in0.0 mm 0.00 in0.0 mm 0.18 in4.6 mm
08:35 PM 75.6°F24.2°C 70.8°F21.6°C 85% Calm Calm -- 29.89 in1012.2 mb 0.00 in0.0 mm 0.00 in0.0 mm 0.18 in4.6 mm
08:25 PM 76.0°F24.4°C 70.8°F21.6°C 84% Calm Calm -- 29.89 in1012.2 mb 0.00 in0.0 mm 0.00 in0.0 mm 0.18 in4.6 mm
08:15 PM 76.8°F24.9°C 70.9°F21.6°C 82% Calm Calm -- 29.88 in1011.9 mb 0.00 in0.0 mm 0.00 in0.0 mm 0.18 in4.6 mm
08:05 PM 77.9°F25.5°C 70.9°F21.6°C 79% Calm Calm -- 29.88 in1011.9 mb 0.00 in0.0 mm 0.00 in0.0 mm 0.18 in4.6 mm
07:55 PM 78.5°F25.8°C 71.5°F21.9°C 79% Calm Calm -- 29.88 in1011.9 mb 0.00 in0.0 mm 0.00 in0.0 mm 0.18 in4.6 mm
07:45 PM 78.9°F26.1°C 71.5°F21.9°C 78% Calm Calm -- 29.87 in1011.5 mb 0.00 in0.0 mm 0.00 in0.0 mm 0.18 in4.6 mm
07:35 PM 79.4°F26.3°C 71.6°F22.0°C 77% Calm Calm 3.0 mph4.8 kmh 29.87 in1011.5 mb 0.00 in0.0 mm 0.00 in0.0 mm 0.18 in4.6 mm
07:25 PM 79.8°F26.6°C 71.6°F22.0°C 76% 1.0 mph WSW1.6 kmh WSW 5.0 mph8.0 kmh 29.87 in1011.5 mb 0.00 in0.0 mm 0.00 in0.0 mm 0.18 in4.6 mm
07:15 PM 80.1°F26.7°C 71.9°F22.2°C 76% Calm Calm 4.0 mph6.4 kmh 29.87 in1011.5 mb 0.00 in0.0 mm 0.00 in0.0 mm 0.18 in4.6 mm
07:05 PM 80.4°F26.9°C 71.8°F22.1°C 75% Calm Calm 4.0 mph6.4 kmh 29.87 in1011.5 mb 0.00 in0.0 mm 0.00 in0.0 mm 0.18 in4.6 mm
06:55 PM 80.8°F27.1°C 72.1°F22.3°C 75% Calm Calm 6.0 mph9.7 kmh 29.86 in1011.2 mb 0.00 in0.0 mm 0.00 in0.0 mm 0.18 in4.6 mm
06:45 PM 81.0°F27.2°C 72.3°F22.4°C 75% 4.0 mph SW6.4 kmh SW 4.0 mph6.4 kmh 29.86 in1011.2 mb 0.00 in0.0 mm 0.00 in0.0 mm 0.18 in4.6 mm
06:35 PM 81.3°F27.4°C 72.2°F22.3°C 74% 2.0 mph SW3.2 kmh SW 4.0 mph6.4 kmh 29.86 in1011.2 mb 0.00 in0.0 mm 0.00 in0.0 mm 0.18 in4.6 mm
06:25 PM 81.6°F27.6°C 72.5°F22.5°C 74% 1.0 mph SW1.6 kmh SW 2.0 mph3.2 kmh 29.86 in1011.2 mb 0.00 in0.0 mm 0.00 in0.0 mm 0.18 in4.6 mm
06:15 PM 81.9°F27.7°C 72.4°F22.4°C 73% 2.0 mph SW3.2 kmh SW 7.0 mph11.3 kmh 29.86 in1011.2 mb 0.00 in0.0 mm 0.00 in0.0 mm 0.18 in4.6 mm
06:05 PM 82.3°F27.9°C 72.4°F22.4°C 72% 6.0 mph SW9.7 kmh SW 6.0 mph9.7 kmh 29.86 in1011.2 mb 0.00 in0.0 mm 0.00 in0.0 mm 0.18 in4.6 mm
05:55 PM 82.6°F28.1°C 71.8°F22.1°C 70% 3.0 mph SW4.8 kmh SW 3.0 mph4.8 kmh 29.86 in1011.2 mb 0.00 in0.0 mm 0.00 in0.0 mm 0.18 in4.6 mm
05:45 PM 82.0°F27.8°C 71.7°F22.1°C 71% 1.0 mph NW1.6 kmh NW 7.0 mph11.3 kmh 29.85 in1010.8 mb 0.00 in0.0 mm 0.00 in0.0 mm 0.18 in4.6 mm
05:35 PM 82.4°F28.0°C 71.2°F21.8°C 69% Calm Calm 6.0 mph9.7 kmh 29.85 in1010.8 mb 0.00 in0.0 mm 0.00 in0.0 mm 0.18 in4.6 mm
05:25 PM 82.7°F28.2°C 71.1°F21.7°C 68% 4.0 mph WSW6.4 kmh WSW 6.0 mph9.7 kmh 29.86 in1011.2 mb 0.00 in0.0 mm 0.00 in0.0 mm 0.18 in4.6 mm
05:15 PM 82.8°F28.2°C 70.7°F21.5°C 67% 1.0 mph WSW1.6 kmh WSW 1.0 mph1.6 kmh 29.86 in1011.2 mb 0.00 in0.0 mm 0.00 in0.0 mm 0.18 in4.6 mm
05:05 PM 83.4°F28.6°C 71.3°F21.8°C 67% 3.0 mph SW4.8 kmh SW 3.0 mph4.8 kmh 29.86 in1011.2 mb 0.00 in0.0 mm 0.00 in0.0 mm 0.18 in4.6 mm
04:55 PM 83.0°F28.3°C 71.4°F21.9°C 68% 2.0 mph WSW3.2 kmh WSW 4.0 mph6.4 kmh 29.86 in1011.2 mb 0.00 in0.0 mm 0.00 in0.0 mm 0.18 in4.6 mm
04:45 PM 82.9°F28.3°C 71.3°F21.8°C 68% 3.0 mph WNW4.8 kmh WNW 6.0 mph9.7 kmh 29.86 in1011.2 mb 0.00 in0.0 mm 0.00 in0.0 mm 0.18 in4.6 mm
04:35 PM 82.9°F28.3°C 71.3°F21.8°C 68% 8.0 mph SSW12.9 kmh SSW 10.0 mph16.1 kmh 29.86 in1011.2 mb 0.00 in0.0 mm 0.00 in0.0 mm 0.18 in4.6 mm
04:25 PM 82.9°F28.3°C 71.3°F21.8°C 68% 3.0 mph WSW4.8 kmh WSW 4.0 mph6.4 kmh 29.86 in1011.2 mb 0.00 in0.0 mm 0.00 in0.0 mm 0.18 in4.6 mm
04:15 PM 83.4°F28.6°C 72.2°F22.3°C 69% 6.0 mph S9.7 kmh S 8.0 mph12.9 kmh 29.86 in1011.2 mb 0.00 in0.0 mm 0.00 in0.0 mm 0.18 in4.6 mm
04:05 PM 82.6°F28.1°C 72.3°F22.4°C 71% 1.0 mph WNW1.6 kmh WNW 1.0 mph1.6 kmh 29.86 in1011.2 mb 0.00 in0.0 mm 0.00 in0.0 mm 0.18 in4.6 mm
03:55 PM 82.5°F28.1°C 71.3°F21.8°C 69% 11.0 mph SSW17.7 kmh SSW 11.0 mph17.7 kmh 29.86 in1011.2 mb 0.00 in0.0 mm 0.00 in0.0 mm 0.18 in4.6 mm
03:45 PM 83.0°F28.3°C 71.8°F22.1°C 69% 4.0 mph S6.4 kmh S 13.0 mph20.9 kmh 29.86 in1011.2 mb 0.00 in0.0 mm 0.00 in0.0 mm 0.18 in4.6 mm
03:35 PM 84.0°F28.9°C 72.7°F22.6°C 69% 2.0 mph SW3.2 kmh SW 11.0 mph17.7 kmh 29.86 in1011.2 mb 0.00 in0.0 mm 0.00 in0.0 mm 0.18 in4.6 mm
03:25 PM 83.7°F28.7°C 73.3°F22.9°C 71% 6.0 mph SW9.7 kmh SW 6.0 mph9.7 kmh 29.86 in1011.2 mb 0.00 in0.0 mm 0.00 in0.0 mm 0.18 in4.6 mm
03:15 PM 83.4°F28.6°C 72.2°F22.3°C 69% 11.0 mph SW17.7 kmh SW 11.0 mph17.7 kmh 29.86 in1011.2 mb 0.00 in0.0 mm 0.00 in0.0 mm 0.18 in4.6 mm
03:05 PM 83.6°F28.7°C 72.8°F22.7°C 70% 8.0 mph WSW12.9 kmh WSW 8.0 mph12.9 kmh 29.86 in1011.2 mb 0.00 in0.0 mm 0.00 in0.0 mm 0.18 in4.6 mm
02:55 PM 83.7°F28.7°C 73.3°F22.9°C 71% 3.0 mph WSW4.8 kmh WSW 3.0 mph4.8 kmh 29.86 in1011.2 mb 0.00 in0.0 mm 0.00 in0.0 mm 0.18 in4.6 mm
02:45 PM 82.6°F28.1°C 73.5°F23.1°C 74% 4.0 mph SW6.4 kmh SW 5.0 mph8.0 kmh 29.86 in1011.2 mb 0.00 in0.0 mm 0.00 in0.0 mm 0.18 in4.6 mm
02:35 PM 81.7°F27.6°C 72.6°F22.6°C 74% 3.0 mph SW4.8 kmh SW 5.0 mph8.0 kmh 29.86 in1011.2 mb 0.00 in0.0 mm 0.00 in0.0 mm 0.18 in4.6 mm
02:25 PM 81.4°F27.4°C 72.3°F22.4°C 74% 1.0 mph SSW1.6 kmh SSW 3.0 mph4.8 kmh 29.87 in1011.5 mb 0.00 in0.0 mm 0.00 in0.0 mm 0.18 in4.6 mm
02:15 PM 80.9°F27.2°C 71.4°F21.9°C 73% 1.0 mph SW1.6 kmh SW 10.0 mph16.1 kmh 29.87 in1011.5 mb 0.00 in0.0 mm 0.00 in0.0 mm 0.18 in4.6 mm
02:05 PM 81.4°F27.4°C 71.9°F22.2°C 73% 3.0 mph SW4.8 kmh SW 3.0 mph4.8 kmh 29.86 in1011.2 mb 0.00 in0.0 mm 0.00 in0.0 mm 0.18 in4.6 mm
01:55 PM 81.0°F27.2°C 71.5°F21.9°C 73% 2.0 mph SW3.2 kmh SW 5.0 mph8.0 kmh 29.86 in1011.2 mb 0.00 in0.0 mm 0.00 in0.0 mm 0.18 in4.6 mm
01:45 PM 81.0°F27.2°C 71.9°F22.2°C 74% 4.0 mph S6.4 kmh S 5.0 mph8.0 kmh 29.86 in1011.2 mb 0.00 in0.0 mm 0.00 in0.0 mm 0.18 in4.6 mm
01:35 PM 81.1°F27.3°C 71.2°F21.8°C 72% 2.0 mph SSW3.2 kmh SSW 2.0 mph3.2 kmh 29.86 in1011.2 mb 0.00 in0.0 mm 0.00 in0.0 mm 0.18 in4.6 mm
01:25 PM 81.3°F27.4°C 71.4°F21.9°C 72% Calm Calm -- 29.86 in1011.2 mb 0.00 in0.0 mm 0.00 in0.0 mm 0.18 in4.6 mm
01:15 PM 81.2°F27.3°C 71.7°F22.1°C 73% 7.0 mph SW11.3 kmh SW 7.0 mph11.3 kmh 29.86 in1011.2 mb 0.00 in0.0 mm 0.00 in0.0 mm 0.18 in4.6 mm
01:05 PM 81.1°F27.3°C 71.6°F22.0°C 73% 3.0 mph SW4.8 kmh SW 19.0 mph30.6 kmh 29.86 in1011.2 mb 0.00 in0.0 mm 0.00 in0.0 mm 0.18 in4.6 mm
12:55 PM 81.3°F27.4°C 72.2°F22.3°C 74% 4.0 mph WSW6.4 kmh WSW 4.0 mph6.4 kmh 29.86 in1011.2 mb 0.00 in0.0 mm 0.00 in0.0 mm 0.18 in4.6 mm
12:45 PM 81.3°F27.4°C 71.0°F21.7°C 71% 11.0 mph SW17.7 kmh SW 11.0 mph17.7 kmh 29.86 in1011.2 mb 0.00 in0.0 mm 0.00 in0.0 mm 0.18 in4.6 mm
12:35 PM 80.8°F27.1°C 72.1°F22.3°C 75% 2.0 mph SW3.2 kmh SW 3.0 mph4.8 kmh 29.85 in1010.8 mb 0.00 in0.0 mm 0.00 in0.0 mm 0.18 in4.6 mm
12:25 PM 80.3°F26.8°C 71.3°F21.8°C 74% 4.0 mph WSW6.4 kmh WSW 7.0 mph11.3 kmh 29.86 in1011.2 mb 0.00 in0.0 mm 0.00 in0.0 mm 0.18 in4.6 mm
12:15 PM 79.8°F26.6°C 72.0°F22.2°C 77% 2.0 mph SW3.2 kmh SW 2.0 mph3.2 kmh 29.85 in1010.8 mb 0.00 in0.0 mm 0.00 in0.0 mm 0.18 in4.6 mm
12:05 PM 80.0°F26.7°C 72.2°F22.3°C 77% 3.0 mph WSW4.8 kmh WSW 4.0 mph6.4 kmh 29.86 in1011.2 mb 0.00 in0.0 mm 0.00 in0.0 mm 0.18 in4.6 mm
11:55 AM 78.9°F26.1°C 72.2°F22.3°C 80% Calm Calm -- 29.86 in1011.2 mb 0.00 in0.0 mm 0.00 in0.0 mm 0.18 in4.6 mm
11:45 AM 78.2°F25.7°C 71.2°F21.8°C 79% 4.0 mph WSW6.4 kmh WSW 15.0 mph24.1 kmh 29.86 in1011.2 mb 0.00 in0.0 mm 0.00 in0.0 mm 0.18 in4.6 mm
11:35 AM 78.1°F25.6°C 70.7°F21.5°C 78% 10.0 mph SW16.1 kmh SW 10.0 mph16.1 kmh 29.86 in1011.2 mb 0.00 in0.0 mm 0.00 in0.0 mm 0.18 in4.6 mm
11:25 AM 77.2°F25.1°C 70.9°F21.6°C 81% 3.0 mph NNE4.8 kmh NNE 3.0 mph4.8 kmh 29.85 in1010.8 mb 0.00 in0.0 mm 0.00 in0.0 mm 0.18 in4.6 mm
11:15 AM 75.9°F24.4°C 69.7°F20.9°C 81% 6.0 mph SW9.7 kmh SW 7.0 mph11.3 kmh 29.85 in1010.8 mb 0.00 in0.0 mm 0.00 in0.0 mm 0.18 in4.6 mm
11:05 AM 76.1°F24.5°C 69.9°F21.1°C 81% 2.0 mph SW3.2 kmh SW 3.0 mph4.8 kmh 29.84 in1010.5 mb 0.00 in0.0 mm 0.00 in0.0 mm 0.18 in4.6 mm
10:55 AM 75.7°F24.3°C 69.8°F21.0°C 82% 9.0 mph SW14.5 kmh SW 9.0 mph14.5 kmh 29.85 in1010.8 mb 0.00 in0.0 mm 0.00 in0.0 mm 0.18 in4.6 mm
10:45 AM 75.5°F24.2°C 70.0°F21.1°C 83% 9.0 mph WSW14.5 kmh WSW 11.0 mph17.7 kmh 29.85 in1010.8 mb 0.00 in0.0 mm 0.00 in0.0 mm 0.18 in4.6 mm
10:35 AM 74.9°F23.8°C 70.1°F21.2°C 85% 6.0 mph SSW9.7 kmh SSW 6.0 mph9.7 kmh 29.84 in1010.5 mb 0.00 in0.0 mm 0.00 in0.0 mm 0.18 in4.6 mm
10:25 AM 73.6°F23.1°C 69.2°F20.7°C 86% 7.0 mph WSW11.3 kmh WSW 7.0 mph11.3 kmh 29.84 in1010.5 mb 0.00 in0.0 mm 0.00 in0.0 mm 0.18 in4.6 mm
10:15 AM 73.1°F22.8°C 69.0°F20.6°C 87% 3.0 mph SW4.8 kmh SW 4.0 mph6.4 kmh 29.84 in1010.5 mb 0.00 in0.0 mm 0.00 in0.0 mm 0.18 in4.6 mm
10:05 AM 72.9°F22.7°C 69.1°F20.6°C 88% 6.0 mph SW9.7 kmh SW 6.0 mph9.7 kmh 29.84 in1010.5 mb 0.00 in0.0 mm 0.00 in0.0 mm 0.18 in4.6 mm
09:55 AM 72.6°F22.6°C 69.2°F20.7°C 89% 3.0 mph SSW4.8 kmh SSW 4.0 mph6.4 kmh 29.84 in1010.5 mb 0.00 in0.0 mm 0.00 in0.0 mm 0.18 in4.6 mm
09:45 AM 72.1°F22.3°C 69.3°F20.7°C 91% 2.0 mph S3.2 kmh S 3.0 mph4.8 kmh 29.83 in1010.2 mb 0.00 in0.0 mm 0.00 in0.0 mm 0.18 in4.6 mm
09:35 AM 71.8°F22.1°C 69.4°F20.8°C 92% 8.0 mph S12.9 kmh S 8.0 mph12.9 kmh 29.83 in1010.2 mb 0.00 in0.0 mm 0.00 in0.0 mm 0.18 in4.6 mm
09:25 AM 71.2°F21.8°C 69.1°F20.6°C 93% Calm Calm -- 29.83 in1010.2 mb 0.00 in0.0 mm 0.00 in0.0 mm 0.18 in4.6 mm
09:15 AM 70.7°F21.5°C 68.6°F20.3°C 93% Calm Calm -- 29.83 in1010.2 mb 0.00 in0.0 mm 0.00 in0.0 mm 0.18 in4.6 mm
09:05 AM 70.3°F21.3°C 68.5°F20.3°C 94% Calm Calm -- 29.84 in1010.5 mb 0.00 in0.0 mm 0.00 in0.0 mm 0.18 in4.6 mm
08:55 AM 69.9°F21.1°C 68.1°F20.1°C 94% 4.0 mph SSW6.4 kmh SSW 4.0 mph6.4 kmh 29.83 in1010.2 mb 0.00 in0.0 mm 0.00 in0.0 mm 0.18 in4.6 mm
08:45 AM 69.6°F20.9°C 67.8°F19.9°C 94% Calm Calm -- 29.83 in1010.2 mb 0.00 in0.0 mm 0.00 in0.0 mm 0.18 in4.6 mm
08:35 AM 69.1°F20.6°C 67.3°F19.6°C 94% Calm Calm -- 29.83 in1010.2 mb 0.00 in0.0 mm 0.00 in0.0 mm 0.18 in4.6 mm
08:25 AM 68.8°F20.4°C 67.3°F19.6°C 95% 1.0 mph WSW1.6 kmh WSW 1.0 mph1.6 kmh 29.83 in1010.2 mb 0.00 in0.0 mm 0.00 in0.0 mm 0.18 in4.6 mm
08:15 AM 68.3°F20.2°C 66.8°F19.3°C 95% Calm Calm -- 29.83 in1010.2 mb 0.00 in0.0 mm 0.00 in0.0 mm 0.18 in4.6 mm
08:05 AM 67.9°F19.9°C 66.4°F19.1°C 95% 1.0 mph SW1.6 kmh SW 3.0 mph4.8 kmh 29.83 in1010.2 mb 0.00 in0.0 mm 0.00 in0.0 mm 0.18 in4.6 mm
07:55 AM 67.5°F19.7°C 66.0°F18.9°C 95% 3.0 mph SW4.8 kmh SW 3.0 mph4.8 kmh 29.83 in1010.2 mb 0.00 in0.0 mm 0.00 in0.0 mm 0.18 in4.6 mm
07:45 AM 67.2°F19.6°C 65.7°F18.7°C 95% 1.0 mph SW1.6 kmh SW 1.0 mph1.6 kmh 29.83 in1010.2 mb 0.00 in0.0 mm 0.00 in0.0 mm 0.18 in4.6 mm
07:35 AM 67.2°F19.6°C 65.7°F18.7°C 95% Calm Calm -- 29.82 in1009.8 mb 0.05 in1.3 mm 0.00 in0.0 mm 0.18 in4.6 mm
07:25 AM 66.8°F19.3°C 65.3°F18.5°C 95% 4.0 mph SSW6.4 kmh SSW 4.0 mph6.4 kmh 29.81 in1009.5 mb 0.05 in1.3 mm 0.00 in0.0 mm 0.18 in4.6 mm
07:15 AM 66.5°F19.2°C 65.0°F18.3°C 95% 1.0 mph SSW1.6 kmh SSW 3.0 mph4.8 kmh 29.80 in1009.1 mb 0.05 in1.3 mm 0.00 in0.0 mm 0.18 in4.6 mm
07:05 AM 66.3°F19.1°C 64.8°F18.2°C 95% 1.0 mph SW1.6 kmh SW 1.0 mph1.6 kmh 29.81 in1009.5 mb 0.06 in1.5 mm 0.00 in0.0 mm 0.18 in4.6 mm
06:55 AM 66.2°F19.0°C 64.7°F18.2°C 95% 1.0 mph S1.6 kmh S 3.0 mph4.8 kmh 29.80 in1009.1 mb 0.06 in1.5 mm 0.00 in0.0 mm 0.18 in4.6 mm
06:45 AM 66.2°F19.0°C 64.7°F18.2°C 95% 1.0 mph S1.6 kmh S 1.0 mph1.6 kmh 29.80 in1009.1 mb 0.06 in1.5 mm 0.30 in7.6 mm 0.18 in4.6 mm
06:35 AM 66.1°F18.9°C 64.6°F18.1°C 95% 3.0 mph SSW4.8 kmh SSW 3.0 mph4.8 kmh 29.81 in1009.5 mb 0.01 in0.3 mm 0.00 in0.0 mm 0.13 in3.3 mm
06:25 AM 65.9°F18.8°C 64.4°F18.0°C 95% 3.0 mph SW4.8 kmh SW 3.0 mph4.8 kmh 29.79 in1008.8 mb 0.02 in0.5 mm 0.00 in0.0 mm 0.13 in3.3 mm
06:15 AM 65.9°F18.8°C 64.4°F18.0°C 95% Calm Calm 2.0 mph3.2 kmh 29.78 in1008.5 mb 0.02 in0.5 mm 0.06 in1.5 mm 0.13 in3.3 mm
06:05 AM 65.9°F18.8°C 64.4°F18.0°C 95% 1.0 mph SSW1.6 kmh SSW 1.0 mph1.6 kmh 29.79 in1008.8 mb 0.01 in0.3 mm 0.00 in0.0 mm 0.12 in3.0 mm
05:55 AM 65.9°F18.8°C 64.4°F18.0°C 95% Calm Calm -- 29.78 in1008.5 mb 0.01 in0.3 mm 0.00 in0.0 mm 0.12 in3.0 mm
05:45 AM 65.8°F18.8°C 64.3°F17.9°C 95% 1.0 mph S1.6 kmh S 1.0 mph1.6 kmh 29.78 in1008.5 mb 0.01 in0.3 mm 0.00 in0.0 mm 0.12 in3.0 mm
05:35 AM 65.8°F18.8°C 64.3°F17.9°C 95% Calm Calm -- 29.78 in1008.5 mb 0.01 in0.3 mm 0.06 in1.5 mm 0.12 in3.0 mm
05:25 AM 65.7°F18.7°C 64.2°F17.9°C 95% 2.0 mph S3.2 kmh S 3.0 mph4.8 kmh 29.78 in1008.5 mb 0.00 in0.0 mm 0.00 in0.0 mm 0.11 in2.8 mm
05:15 AM 65.8°F18.8°C 64.3°F17.9°C 95% Calm Calm 1.0 mph1.6 kmh 29.79 in1008.8 mb 0.00 in0.0 mm 0.00 in0.0 mm 0.11 in2.8 mm
05:05 AM 65.8°F18.8°C 64.3°F17.9°C 95% 4.0 mph SW6.4 kmh SW 4.0 mph6.4 kmh 29.79 in1008.8 mb 0.00 in0.0 mm 0.00 in0.0 mm 0.11 in2.8 mm
04:55 AM 65.7°F18.7°C 64.2°F17.9°C 95% 1.0 mph S1.6 kmh S 2.0 mph3.2 kmh 29.79 in1008.8 mb 0.00 in0.0 mm 0.00 in0.0 mm 0.11 in2.8 mm
04:45 AM 65.8°F18.8°C 64.3°F17.9°C 95% 2.0 mph SSE3.2 kmh SSE 2.0 mph3.2 kmh 29.79 in1008.8 mb 0.00 in0.0 mm 0.00 in0.0 mm 0.11 in2.8 mm
04:35 AM 65.8°F18.8°C 64.3°F17.9°C 95% 1.0 mph ESE1.6 kmh ESE 2.0 mph3.2 kmh 29.80 in1009.1 mb 0.03 in0.8 mm 0.00 in0.0 mm 0.11 in2.8 mm
04:25 AM 65.7°F18.7°C 64.2°F17.9°C 95% Calm Calm 1.0 mph1.6 kmh 29.81 in1009.5 mb 0.03 in0.8 mm 0.00 in0.0 mm 0.11 in2.8 mm
04:15 AM 65.6°F18.7°C 64.1°F17.8°C 95% 2.0 mph SW3.2 kmh SW 4.0 mph6.4 kmh 29.80 in1009.1 mb 0.03 in0.8 mm 0.00 in0.0 mm 0.11 in2.8 mm
04:05 AM 65.4°F18.6°C 63.9°F17.7°C 95% 2.0 mph ESE3.2 kmh ESE 2.0 mph3.2 kmh 29.79 in1008.8 mb 0.03 in0.8 mm 0.00 in0.0 mm 0.11 in2.8 mm
03:55 AM 65.2°F18.4°C 64.0°F17.8°C 96% 2.0 mph S3.2 kmh S 2.0 mph3.2 kmh 29.79 in1008.8 mb 0.03 in0.8 mm 0.00 in0.0 mm 0.11 in2.8 mm
03:45 AM 65.0°F18.3°C 63.8°F17.7°C 96% 5.0 mph SSW8.0 kmh SSW 5.0 mph8.0 kmh 29.80 in1009.1 mb 0.03 in0.8 mm 0.18 in4.6 mm 0.11 in2.8 mm
03:35 AM 65.1°F18.4°C 63.9°F17.7°C 96% 3.0 mph SE4.8 kmh SE 4.0 mph6.4 kmh 29.80 in1009.1 mb 0.00 in0.0 mm 0.00 in0.0 mm 0.08 in2.0 mm
03:25 AM 65.0°F18.3°C 63.8°F17.7°C 96% 3.0 mph S4.8 kmh S 4.0 mph6.4 kmh 29.79 in1008.8 mb 0.00 in0.0 mm 0.00 in0.0 mm 0.08 in2.0 mm
03:15 AM 65.0°F18.3°C 63.8°F17.7°C 96% Calm Calm -- 29.79 in1008.8 mb 0.00 in0.0 mm 0.00 in0.0 mm 0.08 in2.0 mm
03:05 AM 65.0°F18.3°C 63.5°F17.5°C 95% 1.0 mph S1.6 kmh S 1.0 mph1.6 kmh 29.79 in1008.8 mb 0.01 in0.3 mm 0.00 in0.0 mm 0.08 in2.0 mm
02:55 AM 65.1°F18.4°C 63.6°F17.6°C 95% 1.0 mph SE1.6 kmh SE 2.0 mph3.2 kmh 29.78 in1008.5 mb 0.02 in0.5 mm 0.00 in0.0 mm 0.08 in2.0 mm
02:45 AM 65.0°F18.3°C 63.8°F17.7°C 96% Calm Calm -- 29.80 in1009.1 mb 0.02 in0.5 mm 0.00 in0.0 mm 0.08 in2.0 mm
02:35 AM 65.1°F18.4°C 63.9°F17.7°C 96% Calm Calm -- 29.81 in1009.5 mb 0.02 in0.5 mm 0.00 in0.0 mm 0.08 in2.0 mm
02:25 AM 65.3°F18.5°C 63.8°F17.7°C 95% Calm Calm -- 29.80 in1009.1 mb 0.03 in0.8 mm 0.00 in0.0 mm 0.08 in2.0 mm
02:15 AM 65.4°F18.6°C 63.9°F17.7°C 95% Calm Calm -- 29.81 in1009.5 mb 0.04 in1.0 mm 0.00 in0.0 mm 0.08 in2.0 mm
02:05 AM 65.4°F18.6°C 63.9°F17.7°C 95% Calm Calm -- 29.83 in1010.2 mb 0.04 in1.0 mm 0.00 in0.0 mm 0.08 in2.0 mm
01:55 AM 65.2°F18.4°C 63.7°F17.6°C 95% Calm Calm -- 29.84 in1010.5 mb 0.04 in1.0 mm 0.00 in0.0 mm 0.08 in2.0 mm
01:45 AM 65.1°F18.4°C 63.6°F17.6°C 95% 2.0 mph E3.2 kmh E 2.0 mph3.2 kmh 29.81 in1009.5 mb 0.04 in1.0 mm 0.00 in0.0 mm 0.08 in2.0 mm
01:35 AM 65.0°F18.3°C 63.5°F17.5°C 95% 6.0 mph SE9.7 kmh SE 8.0 mph12.9 kmh 29.80 in1009.1 mb 0.06 in1.5 mm 0.00 in0.0 mm 0.08 in2.0 mm
01:15 AM 65.2°F18.4°C 63.7°F17.6°C 95% 6.0 mph E9.7 kmh E 7.0 mph11.3 kmh 29.80 in1009.1 mb 0.06 in1.5 mm 0.00 in0.0 mm 0.08 in2.0 mm
01:05 AM 65.3°F18.5°C 63.8°F17.7°C 95% 6.0 mph S9.7 kmh S 6.0 mph9.7 kmh 29.84 in1010.5 mb 0.06 in1.5 mm 0.00 in0.0 mm 0.08 in2.0 mm
12:55 AM 65.3°F18.5°C 63.8°F17.7°C 95% 1.0 mph SE1.6 kmh SE 1.0 mph1.6 kmh 29.86 in1011.2 mb 0.06 in1.5 mm 0.00 in0.0 mm 0.08 in2.0 mm
12:45 AM 65.3°F18.5°C 63.8°F17.7°C 95% Calm Calm -- 29.85 in1010.8 mb 0.07 in1.8 mm 0.12 in3.0 mm 0.08 in2.0 mm
12:35 AM 65.4°F18.6°C 63.9°F17.7°C 95% 2.0 mph ESE3.2 kmh ESE 2.0 mph3.2 kmh 29.86 in1011.2 mb 0.05 in1.3 mm 0.12 in3.0 mm 0.06 in1.5 mm
12:25 AM 65.4°F18.6°C 63.9°F17.7°C 95% Calm Calm -- 29.87 in1011.5 mb 0.03 in0.8 mm 0.00 in0.0 mm 0.04 in1.0 mm
12:15 AM 65.3°F18.5°C 63.8°F17.7°C 95% Calm Calm 1.0 mph1.6 kmh 29.87 in1011.5 mb 0.04 in1.0 mm 0.00 in0.0 mm 0.04 in1.0 mm
12:05 AM 65.3°F18.5°C 63.8°F17.7°C 95% Calm Calm -- 29.89 in1012.2 mb 0.04 in1.0 mm 0.48 in12.2 mm 0.04 in1.0 mm